createdAt,value
2023-04-18T00:02:15.601Z,38.02
2023-04-18T00:05:04.540Z,37.98
2023-04-18T00:07:52.036Z,38.08
2023-04-18T00:10:39.012Z,38.06
2023-04-18T00:13:28.537Z,38.19
2023-04-18T00:16:15.857Z,38.10
2023-04-18T00:19:04.954Z,38.06
2023-04-18T00:21:53.341Z,38.08
2023-04-18T00:24:40.550Z,38.14
2023-04-18T00:27:27.228Z,38.15
2023-04-18T00:30:14.323Z,38.16
2023-04-18T00:33:01.656Z,38.13
2023-04-18T00:35:48.913Z,38.01
2023-04-18T00:38:35.922Z,38.05
2023-04-18T00:41:25.649Z,38.03
2023-04-18T00:44:12.630Z,38.12
2023-04-18T00:46:59.853Z,38.03
2023-04-18T00:49:48.577Z,38.07
2023-04-18T00:52:36.439Z,38.12
2023-04-18T00:55:24.365Z,38.03
2023-04-18T00:58:12.330Z,38.11
2023-04-18T01:00:59.438Z,38.01
2023-04-18T01:03:46.251Z,38.01
2023-04-18T01:06:35.619Z,38.16
2023-04-18T01:09:23.985Z,38.03
2023-04-18T01:12:11.995Z,38.09
2023-04-18T01:15:00.836Z,38.08
2023-04-18T01:17:48.965Z,38.00
2023-04-18T01:20:41.245Z,38.08
2023-04-18T01:23:28.789Z,37.95
2023-04-18T01:26:15.996Z,37.88
2023-04-18T01:29:02.904Z,38.06
2023-04-18T01:31:50.581Z,38.09
2023-04-18T01:34:37.416Z,37.99
2023-04-18T01:37:25.900Z,38.07
2023-04-18T01:40:13.026Z,37.98
2023-04-18T01:42:59.828Z,38.04
2023-04-18T01:45:46.641Z,37.98
2023-04-18T01:48:33.647Z,37.99
2023-04-18T01:51:20.671Z,38.00
2023-04-18T01:54:07.792Z,37.96
2023-04-18T01:56:54.710Z,38.01
2023-04-18T01:59:42.536Z,38.03
2023-04-18T02:02:29.659Z,38.05
2023-04-18T02:05:17.504Z,38.19
2023-04-18T02:08:04.823Z,38.12
2023-04-18T02:10:51.729Z,37.98
2023-04-18T02:13:38.445Z,37.97
2023-04-18T02:16:27.023Z,38.05
2023-04-18T02:19:13.913Z,37.97
2023-04-18T02:22:02.244Z,37.98
2023-04-18T02:24:49.050Z,37.97
2023-04-18T02:27:36.076Z,37.96
2023-04-18T02:30:23.885Z,38.09
2023-04-18T02:33:11.130Z,37.95
2023-04-18T02:35:58.065Z,38.11
2023-04-18T02:38:45.551Z,38.07
2023-04-18T02:41:34.950Z,38.07
2023-04-18T02:44:21.448Z,38.03
2023-04-18T02:47:08.266Z,37.95
2023-04-18T02:49:57.245Z,38.02
2023-04-18T02:52:46.076Z,37.96
2023-04-18T02:55:33.404Z,37.97
2023-04-18T02:58:20.321Z,38.10
2023-04-18T03:01:36.675Z,37.99
2023-04-18T03:04:30.600Z,38.04
2023-04-18T03:07:23.329Z,38.11
2023-04-18T03:10:11.502Z,38.06
2023-04-18T03:12:58.436Z,37.97
2023-04-18T03:15:46.166Z,38.14
2023-04-18T03:18:33.878Z,38.10
2023-04-18T03:21:22.421Z,38.06
2023-04-18T03:24:12.198Z,38.06
2023-04-18T03:27:00.751Z,38.09
2023-04-18T03:29:47.681Z,37.91
2023-04-18T03:32:36.388Z,37.96
2023-04-18T03:35:23.545Z,37.99
2023-04-18T03:38:10.531Z,37.87
2023-04-18T03:40:59.001Z,37.95
2023-04-18T03:43:50.932Z,37.95
2023-04-18T03:46:37.860Z,37.91
2023-04-18T03:49:25.886Z,37.87
2023-04-18T03:52:12.704Z,37.89
2023-04-18T03:55:01.975Z,37.91
2023-04-18T03:57:52.577Z,38.02
2023-04-18T04:00:45.117Z,37.96
2023-04-18T04:03:32.008Z,37.92
2023-04-18T04:06:19.258Z,37.89
2023-04-18T04:09:06.598Z,37.75
2023-04-18T04:11:54.214Z,37.77
2023-04-18T04:14:41.191Z,37.88
2023-04-18T04:17:29.407Z,38.03
2023-04-18T04:20:17.198Z,37.88
2023-04-18T04:23:06.581Z,37.81
2023-04-18T04:25:56.156Z,37.96
2023-04-18T04:29:05.804Z,37.85
2023-04-18T04:31:54.118Z,39.84
2023-04-18T04:34:50.565Z,41.55
2023-04-18T04:37:38.825Z,42.80
2023-04-18T04:40:33.010Z,43.49
2023-04-18T04:43:28.874Z,43.83
2023-04-18T04:46:16.279Z,44.11
2023-04-18T04:49:03.680Z,43.98
2023-04-18T04:51:50.804Z,44.30
2023-04-18T04:54:37.822Z,44.54
2023-04-18T04:57:26.288Z,44.05
2023-04-18T05:00:14.306Z,43.82
2023-04-18T05:03:02.357Z,44.64
2023-04-18T05:05:49.982Z,45.29
2023-04-18T05:08:36.985Z,45.33
2023-04-18T05:11:23.804Z,45.47
2023-04-18T05:14:12.646Z,45.41
2023-04-18T05:17:00.360Z,45.65
2023-04-18T05:19:47.416Z,45.80
2023-04-18T05:22:34.006Z,45.62
2023-04-18T05:25:21.438Z,45.50
2023-04-18T05:28:08.884Z,42.47
2023-04-18T05:31:01.950Z,42.48
2023-04-18T05:33:48.839Z,43.67
2023-04-18T05:36:36.264Z,43.37
2023-04-18T05:39:23.284Z,43.51
2023-04-18T05:42:09.896Z,43.88
2023-04-18T05:44:56.504Z,43.89
2023-04-18T05:47:43.531Z,43.85
2023-04-18T05:50:30.221Z,43.37
2023-04-18T05:53:17.444Z,43.34
2023-04-18T05:56:04.758Z,42.96
2023-04-18T05:58:51.483Z,42.99
2023-04-18T06:01:38.593Z,42.49
2023-04-18T06:04:25.246Z,42.59
2023-04-18T06:07:12.729Z,42.71
2023-04-18T06:09:59.649Z,42.96
2023-04-18T06:12:46.565Z,42.72
2023-04-18T06:15:34.899Z,42.36
2023-04-18T06:18:22.114Z,42.04
2023-04-18T06:21:09.040Z,42.10
2023-04-18T06:23:56.175Z,41.90
2023-04-18T06:26:43.266Z,41.53
2023-04-18T06:29:33.279Z,41.53
2023-04-18T06:32:20.394Z,41.26
2023-04-18T06:35:08.117Z,41.34
2023-04-18T06:37:55.220Z,41.26
2023-04-18T06:40:42.237Z,41.18
2023-04-18T06:43:29.045Z,41.00
2023-04-18T06:46:16.241Z,41.21
2023-04-18T06:49:03.087Z,41.11
2023-04-18T06:51:49.691Z,40.82
2023-04-18T06:54:36.464Z,40.66
2023-04-18T07:00:15.646Z,40.50
2023-04-18T07:03:11.431Z,40.51
2023-04-18T07:05:58.512Z,40.50
2023-04-18T07:08:45.813Z,40.09
2023-04-18T07:11:35.087Z,38.36
2023-04-18T07:14:23.920Z,38.28
2023-04-18T07:20:03.416Z,38.87
2023-04-18T07:22:50.535Z,38.97
2023-04-18T07:25:38.579Z,39.23
2023-04-18T07:28:25.474Z,39.03
2023-04-18T07:31:14.635Z,38.97
2023-04-18T07:34:01.649Z,38.96
2023-04-18T07:36:48.976Z,38.90
2023-04-18T07:39:36.406Z,38.88
2023-04-18T07:42:23.624Z,39.00
2023-04-18T07:45:11.378Z,39.05
2023-04-18T07:47:58.340Z,39.03
2023-04-18T07:50:45.083Z,38.99
2023-04-18T07:53:32.174Z,38.87
2023-04-18T07:56:19.116Z,39.02
2023-04-18T07:59:06.034Z,38.75
2023-04-18T08:01:53.257Z,37.62
2023-04-18T08:04:40.604Z,37.29
2023-04-18T08:07:27.791Z,37.77
2023-04-18T08:10:14.916Z,37.66
2023-04-18T08:13:01.718Z,36.65
2023-04-18T08:15:48.766Z,35.61
2023-04-18T08:18:36.164Z,35.56
2023-04-18T08:21:23.185Z,36.23
2023-04-18T08:24:10.108Z,36.52
2023-04-18T08:26:57.728Z,36.61
2023-04-18T08:29:44.550Z,36.72
2023-04-18T08:32:32.440Z,36.83
2023-04-18T08:35:19.488Z,36.88
2023-04-18T08:38:06.193Z,36.95
2023-04-18T08:40:53.122Z,36.87
2023-04-18T08:43:58.152Z,36.81
2023-04-18T08:47:03.396Z,36.82
2023-04-18T08:49:52.251Z,36.98
2023-04-18T08:52:45.300Z,36.99
2023-04-18T08:55:33.919Z,37.07
2023-04-18T08:58:25.691Z,37.17
2023-04-18T09:01:57.163Z,37.09
2023-04-18T09:04:49.439Z,37.11
2023-04-18T09:07:36.814Z,37.23
2023-04-18T09:10:29.045Z,37.35
2023-04-18T09:13:47.476Z,37.44
2023-04-18T09:16:47.344Z,37.54
2023-04-18T09:19:34.444Z,37.58
2023-04-18T09:22:22.170Z,37.66
2023-04-18T09:25:57.366Z,37.59
2023-04-18T09:28:44.844Z,37.75
2023-04-18T09:32:01.184Z,37.76
2023-04-18T09:34:48.261Z,36.97
2023-04-18T09:37:35.585Z,36.75
2023-04-18T09:40:24.182Z,36.91
2023-04-18T09:43:19.408Z,36.95
2023-04-18T09:46:08.281Z,36.97
2023-04-18T09:48:55.117Z,36.96
2023-04-18T09:51:44.950Z,36.75
2023-04-18T09:54:35.617Z,36.66
2023-04-18T09:57:26.626Z,36.75
2023-04-18T10:00:24.455Z,36.48
2023-04-18T10:03:14.855Z,36.56
2023-04-18T10:06:02.520Z,36.58
2023-04-18T10:08:52.823Z,36.44
2023-04-18T10:11:40.533Z,36.30
2023-04-18T10:14:28.563Z,36.18
2023-04-18T10:17:16.316Z,36.16
2023-04-18T10:20:13.460Z,36.15
2023-04-18T10:23:32.738Z,35.99
2023-04-18T10:35:01.257Z,35.44
2023-04-18T10:37:51.793Z,35.39
2023-04-18T10:40:38.476Z,35.23
2023-04-18T10:43:25.602Z,35.05
2023-04-18T10:46:27.988Z,35.10
2023-04-18T10:49:22.896Z,35.04
2023-04-18T10:55:18.731Z,34.66
2023-04-18T10:58:06.072Z,34.69
2023-04-18T11:00:53.536Z,34.43
2023-04-18T11:03:40.962Z,34.47
2023-04-18T11:06:28.636Z,34.62
2023-04-18T11:09:15.956Z,34.44
2023-04-18T11:12:05.561Z,34.27
2023-04-18T11:14:52.746Z,34.19
2023-04-18T11:17:40.722Z,34.28
2023-04-18T11:20:28.492Z,34.26
2023-04-18T11:23:23.103Z,34.15
2023-04-18T11:26:10.339Z,35.03
2023-04-18T11:28:57.972Z,36.21
2023-04-18T11:31:55.267Z,35.16
2023-04-18T11:34:44.603Z,34.64
2023-04-18T11:37:32.743Z,33.74
2023-04-18T11:40:19.563Z,32.99
2023-04-18T11:43:10.767Z,32.96
2023-04-18T11:45:59.598Z,33.03
2023-04-18T11:48:47.969Z,33.19
2023-04-18T11:51:37.240Z,33.17
2023-04-18T11:54:44.884Z,33.29
2023-04-18T11:57:33.185Z,33.33
2023-04-18T12:00:31.162Z,33.51
2023-04-18T12:06:11.038Z,34.41
2023-04-18T12:09:02.540Z,34.30
2023-04-18T12:12:03.897Z,34.22
2023-04-18T12:14:59.510Z,34.26
2023-04-18T12:17:53.779Z,34.26
2023-04-18T12:20:52.795Z,34.34
2023-04-18T12:26:34.834Z,34.32
2023-04-18T12:29:21.959Z,34.31
2023-04-18T12:32:08.947Z,34.34
2023-04-18T12:34:56.069Z,34.39
2023-04-18T12:37:43.082Z,26.12
2023-04-18T12:40:30.411Z,23.73
2023-04-18T12:43:18.371Z,24.21
2023-04-18T12:46:05.374Z,24.97
2023-04-18T12:48:52.468Z,24.96
2023-04-18T12:51:40.758Z,25.95
2023-04-18T12:54:28.312Z,26.06
2023-04-18T12:57:15.976Z,25.99
2023-04-18T13:00:23.633Z,26.64
2023-04-18T13:03:12.563Z,27.38
2023-04-18T13:06:00.579Z,27.41
2023-04-18T13:08:48.328Z,27.17
2023-04-18T13:11:35.432Z,27.41
2023-04-18T13:14:22.248Z,26.72
2023-04-18T13:17:09.889Z,25.79
2023-04-18T13:19:56.938Z,25.88
2023-04-18T13:22:45.256Z,25.86
2023-04-18T13:25:32.575Z,25.74
2023-04-18T13:28:19.580Z,26.36
2023-04-18T13:31:06.931Z,26.33
2023-04-18T13:33:53.721Z,26.78
2023-04-18T13:36:40.532Z,26.72
2023-04-18T13:39:29.687Z,26.81
2023-04-18T13:42:18.135Z,27.28
2023-04-18T13:45:05.552Z,26.74
2023-04-18T13:47:53.077Z,26.45
2023-04-18T13:50:40.327Z,26.23
2023-04-18T13:53:28.387Z,25.89
2023-04-18T13:56:16.391Z,25.87
2023-04-18T13:59:03.109Z,25.68
2023-04-18T14:01:51.595Z,25.67
2023-04-18T14:04:39.185Z,25.92
2023-04-18T14:07:25.767Z,26.17
2023-04-18T14:10:12.704Z,26.22
2023-04-18T14:12:59.424Z,26.52
2023-04-18T14:15:46.556Z,27.59
2023-04-18T14:18:33.851Z,28.93
2023-04-18T14:21:20.452Z,29.57
2023-04-18T14:24:08.730Z,30.11
2023-04-18T14:26:55.598Z,30.67
2023-04-18T14:29:42.322Z,30.88
2023-04-18T14:32:29.862Z,31.17
2023-04-18T14:35:16.996Z,31.31
2023-04-18T14:38:03.786Z,31.58
2023-04-18T14:40:50.910Z,31.76
2023-04-18T14:43:37.625Z,31.95
2023-04-18T14:46:24.658Z,32.04
2023-04-18T14:49:11.737Z,32.10
2023-04-18T14:51:58.765Z,32.22
2023-04-18T14:54:45.992Z,32.29
2023-04-18T14:57:34.919Z,32.56
2023-04-18T15:00:22.279Z,32.74
2023-04-18T15:03:11.229Z,32.80
2023-04-18T15:05:58.356Z,32.98
2023-04-18T15:08:45.056Z,33.32
2023-04-18T15:11:32.066Z,33.48
2023-04-18T15:14:20.212Z,33.48
2023-04-18T15:17:06.915Z,33.52
2023-04-18T15:19:53.602Z,33.52
2023-04-18T15:22:40.628Z,33.60
2023-04-18T15:25:27.976Z,33.59
2023-04-18T15:28:18.240Z,33.73
2023-04-18T15:31:07.022Z,33.99
2023-04-18T15:33:55.050Z,34.05
2023-04-18T15:36:42.388Z,34.12
2023-04-18T15:39:29.340Z,34.22
2023-04-18T15:42:16.543Z,34.26
2023-04-18T15:45:04.786Z,34.32
2023-04-18T15:47:51.814Z,34.23
2023-04-18T15:50:38.739Z,34.17
2023-04-18T15:53:25.605Z,34.11
2023-04-18T15:56:12.841Z,34.12
2023-04-18T15:59:00.572Z,34.10
2023-04-18T16:01:47.512Z,34.15
2023-04-18T16:04:34.755Z,34.20
2023-04-18T16:07:23.865Z,34.22
2023-04-18T16:10:11.313Z,34.57
2023-04-18T16:12:59.742Z,34.66
2023-04-18T16:15:48.341Z,35.11
2023-04-18T16:18:35.710Z,35.12
2023-04-18T16:21:22.526Z,35.21
2023-04-18T16:24:09.131Z,35.65
2023-04-18T16:26:56.917Z,35.86
2023-04-18T16:29:44.709Z,35.81
2023-04-18T16:32:31.567Z,31.18
2023-04-18T16:35:18.633Z,29.40
2023-04-18T16:38:06.573Z,28.91
2023-04-18T16:41:01.558Z,28.33
2023-04-18T16:43:48.902Z,28.55
2023-04-18T16:46:36.167Z,31.08
2023-04-18T16:49:23.977Z,32.77
2023-04-18T16:52:10.823Z,33.36
2023-04-18T16:54:57.883Z,33.56
2023-04-18T16:57:44.695Z,33.63
2023-04-18T17:00:31.922Z,33.80
2023-04-18T17:03:19.086Z,34.15
2023-04-18T17:06:07.381Z,34.43
2023-04-18T17:08:54.513Z,34.46
2023-04-18T17:11:42.139Z,34.37
2023-04-18T17:14:29.047Z,34.48
2023-04-18T17:17:16.170Z,34.67
2023-04-18T17:20:02.872Z,34.76
2023-04-18T17:22:50.098Z,34.80
2023-04-18T17:25:37.528Z,34.96
2023-04-18T17:28:25.228Z,35.02
2023-04-18T17:31:15.463Z,35.02
2023-04-18T17:34:03.891Z,35.06
2023-04-18T17:36:53.367Z,35.22
2023-04-18T17:39:40.794Z,35.37
2023-04-18T17:42:27.910Z,35.51
2023-04-18T17:45:15.128Z,35.56
2023-04-18T17:48:03.236Z,35.60
2023-04-18T17:50:50.183Z,35.69
2023-04-18T17:53:37.154Z,35.78
2023-04-18T17:56:24.626Z,35.79
2023-04-18T17:59:12.299Z,35.94
2023-04-18T18:01:59.828Z,36.25
2023-04-18T18:04:47.407Z,36.14
2023-04-18T18:07:37.394Z,36.22
2023-04-18T18:10:25.125Z,36.49
2023-04-18T18:13:12.139Z,36.59
2023-04-18T18:16:02.332Z,36.78
2023-04-18T18:18:51.246Z,36.69
2023-04-18T18:21:38.003Z,36.85
2023-04-18T18:24:27.073Z,37.40
2023-04-18T18:27:13.993Z,37.57
2023-04-18T18:30:01.006Z,37.99
2023-04-18T18:32:48.589Z,38.44
2023-04-18T18:35:36.475Z,38.60
2023-04-18T18:38:23.622Z,38.65
2023-04-18T18:41:10.716Z,38.64
2023-04-18T18:43:57.512Z,38.81
2023-04-18T18:46:44.327Z,38.75
2023-04-18T18:49:31.034Z,38.63
2023-04-18T18:52:17.834Z,38.54
2023-04-18T18:55:05.205Z,38.50
2023-04-18T18:57:52.091Z,38.41
2023-04-18T19:00:39.000Z,38.41
2023-04-18T19:03:25.914Z,38.32
2023-04-18T19:06:12.624Z,38.34
2023-04-18T19:08:59.542Z,38.20
2023-04-18T19:11:45.887Z,38.19
2023-04-18T19:14:33.112Z,38.18
2023-04-18T19:17:25.964Z,38.08
2023-04-18T19:20:13.441Z,38.00
2023-04-18T19:23:00.521Z,37.91
2023-04-18T19:25:47.568Z,37.87
2023-04-18T19:28:34.989Z,37.77
2023-04-18T19:31:23.980Z,37.76
2023-04-18T19:34:12.048Z,37.75
2023-04-18T19:36:59.937Z,37.75
2023-04-18T19:39:46.959Z,37.68
2023-04-18T19:42:33.855Z,37.61
2023-04-18T19:45:20.686Z,37.61
2023-04-18T19:48:07.439Z,37.49
2023-04-18T19:50:56.547Z,37.41
2023-04-18T19:53:43.558Z,37.40
2023-04-18T19:56:30.606Z,37.28
2023-04-18T19:59:17.893Z,37.27
2023-04-18T20:02:06.684Z,37.20
2023-04-18T20:04:53.561Z,37.55
2023-04-18T20:07:41.785Z,37.79
2023-04-18T20:10:29.339Z,38.17
2023-04-18T20:13:16.333Z,38.51
2023-04-18T20:16:07.688Z,38.74
2023-04-18T20:18:56.712Z,38.98
2023-04-18T20:21:44.029Z,39.01
2023-04-18T20:24:32.010Z,39.00
2023-04-18T20:27:22.195Z,39.08
2023-04-18T20:30:09.607Z,39.11
2023-04-18T20:32:56.711Z,39.22
2023-04-18T20:35:44.639Z,39.17
2023-04-18T20:38:31.589Z,38.95
2023-04-18T20:41:20.963Z,38.58
2023-04-18T20:44:10.114Z,38.67
2023-04-18T20:46:56.862Z,38.69
2023-04-18T20:49:43.752Z,38.57
2023-04-18T20:52:30.655Z,38.43
2023-04-18T20:55:17.984Z,38.49
2023-04-18T20:58:05.002Z,38.44
2023-04-18T21:00:52.641Z,38.52
2023-04-18T21:03:39.734Z,38.19
2023-04-18T21:06:27.485Z,38.35
2023-04-18T21:09:14.795Z,38.30
2023-04-18T21:12:03.871Z,38.25
2023-04-18T21:14:50.663Z,38.27
2023-04-18T21:17:37.530Z,38.36
2023-04-18T21:20:24.337Z,38.41
2023-04-18T21:23:11.104Z,38.38
2023-04-18T21:25:58.349Z,38.43
2023-04-18T21:28:56.265Z,38.39
2023-04-18T21:31:43.597Z,38.48
2023-04-18T21:34:30.551Z,39.09
2023-04-18T21:37:17.283Z,39.16
2023-04-18T21:40:05.474Z,39.20
2023-04-18T21:42:52.525Z,39.07
2023-04-18T21:45:39.376Z,38.98
2023-04-18T21:48:26.139Z,38.87
2023-04-18T21:51:14.656Z,38.86
2023-04-18T21:54:01.498Z,38.88
2023-04-18T21:56:48.312Z,38.80
2023-04-18T21:59:35.131Z,38.70
2023-04-18T22:02:22.159Z,38.63
2023-04-18T22:05:09.365Z,38.71
2023-04-18T22:07:58.702Z,38.53
2023-04-18T22:10:49.854Z,38.57
2023-04-18T22:13:36.553Z,38.55
2023-04-18T22:16:24.760Z,38.45
2023-04-18T22:19:12.285Z,38.44
2023-04-18T22:21:59.344Z,38.46
2023-04-18T22:24:47.526Z,38.37
2023-04-18T22:27:35.522Z,38.35
2023-04-18T22:30:22.654Z,38.36
2023-04-18T22:33:09.653Z,38.25
2023-04-18T22:35:56.374Z,38.30
2023-04-18T22:38:43.185Z,38.28
2023-04-18T22:41:30.192Z,38.25
2023-04-18T22:44:17.254Z,38.33
2023-04-18T22:47:04.667Z,38.17
2023-04-18T22:49:51.952Z,38.10
2023-04-18T22:52:38.292Z,38.14
2023-04-18T22:55:25.385Z,38.14
2023-04-18T22:58:13.605Z,38.15
2023-04-18T23:01:00.852Z,38.04
2023-04-18T23:03:48.088Z,38.07
2023-04-18T23:06:36.901Z,37.99
2023-04-18T23:09:24.865Z,37.98
2023-04-18T23:12:11.789Z,38.02
2023-04-18T23:14:58.690Z,37.88
2023-04-18T23:17:45.531Z,37.90
2023-04-18T23:20:32.615Z,37.91
2023-04-18T23:23:19.947Z,37.90
2023-04-18T23:26:16.602Z,37.89
2023-04-18T23:29:03.795Z,37.89
2023-04-18T23:31:51.678Z,37.83
2023-04-18T23:34:38.758Z,37.93
2023-04-18T23:37:25.975Z,37.80
2023-04-18T23:40:12.989Z,37.81
2023-04-18T23:43:01.956Z,37.87
2023-04-18T23:45:48.461Z,37.81
2023-04-18T23:48:36.193Z,37.81
2023-04-18T23:51:23.321Z,37.78
2023-04-18T23:54:11.046Z,37.77
2023-04-18T23:56:58.462Z,37.81
2023-04-18T23:59:45.485Z,37.79
